createdAt,value
2022-12-11T00:00:17.680Z,98322.97
2022-12-11T00:03:26.662Z,98321.91
2022-12-11T00:06:41.624Z,98305.59
2022-12-11T00:09:56.650Z,98304.78
2022-12-11T00:13:12.645Z,98293.69
2022-12-11T00:16:26.542Z,98295.38
2022-12-11T00:19:41.639Z,98308.91
2022-12-11T00:22:43.769Z,98288.56
2022-12-11T00:25:58.628Z,98284.38
2022-12-11T00:29:07.666Z,98283.56
2022-12-11T00:32:15.754Z,98283.66
2022-12-11T00:35:24.414Z,98294.75
2022-12-11T00:38:39.653Z,98290.03
2022-12-11T00:41:41.635Z,98282.38
2022-12-11T00:45:03.629Z,98280.31
2022-12-11T00:48:18.984Z,98276.09
2022-12-11T00:51:27.637Z,98273.94
2022-12-11T00:54:36.237Z,98286.69
2022-12-11T00:57:50.632Z,98282.97
2022-12-11T01:01:15.942Z,98286.09
2022-12-11T01:04:24.643Z,98290.91
2022-12-11T01:07:33.233Z,98285.31
2022-12-11T01:10:41.690Z,98276.31
2022-12-11T01:13:50.207Z,98283.66
2022-12-11T01:16:58.735Z,98294.63
2022-12-11T01:20:07.936Z,98305.44
2022-12-11T01:23:19.637Z,98302.81
2022-12-11T01:26:28.257Z,98307.59
2022-12-11T01:29:36.649Z,98296.09
2022-12-11T01:32:45.413Z,98303.53
2022-12-11T01:35:53.625Z,98310.00
2022-12-11T01:39:02.302Z,98315.66
2022-12-11T01:42:23.644Z,98311.34
2022-12-11T01:45:51.690Z,98306.22
2022-12-11T01:49:08.639Z,98313.53
2022-12-11T01:52:22.325Z,98304.97
2022-12-11T01:55:39.618Z,98314.19
2022-12-11T01:58:47.630Z,98322.56
2022-12-11T02:02:17.651Z,98322.56
2022-12-11T02:05:26.293Z,98337.00
2022-12-11T02:08:35.644Z,98330.56
2022-12-11T02:11:53.646Z,98332.47
2022-12-11T02:15:30.625Z,98331.28
2022-12-11T02:18:54.687Z,98325.00
2022-12-11T02:22:09.015Z,98327.69
2022-12-11T02:25:17.632Z,98338.06
2022-12-11T02:28:35.626Z,98336.84
2022-12-11T02:32:20.621Z,98328.38
2022-12-11T02:35:34.628Z,98316.34
2022-12-11T02:38:44.997Z,98333.09
2022-12-11T02:41:56.621Z,98321.53
2022-12-11T02:45:15.626Z,98322.09
2022-12-11T02:48:24.698Z,98335.81
2022-12-11T02:51:44.658Z,98315.00
2022-12-11T02:54:54.608Z,98317.94
2022-12-11T02:58:09.327Z,98310.31
2022-12-11T03:01:17.642Z,98319.84
2022-12-11T03:04:26.436Z,98318.84
2022-12-11T03:07:44.675Z,98313.56
2022-12-11T03:10:46.737Z,98306.72
2022-12-11T03:14:01.620Z,98299.31
2022-12-11T03:17:26.623Z,98300.87
2022-12-11T03:20:45.613Z,98301.75
2022-12-11T03:24:16.637Z,98310.00
2022-12-11T03:27:36.761Z,98311.34
2022-12-11T03:30:55.683Z,98311.44
2022-12-11T03:34:20.607Z,98308.06
2022-12-11T03:37:24.067Z,98305.91
2022-12-11T03:40:42.624Z,98303.56
2022-12-11T03:43:51.623Z,98297.19
2022-12-11T03:47:09.626Z,98291.63
2022-12-11T03:50:35.648Z,98309.56
2022-12-11T03:53:39.070Z,98308.78
2022-12-11T03:56:55.630Z,98320.22
2022-12-11T04:00:07.632Z,98303.81
2022-12-11T04:03:22.639Z,98302.09
2022-12-11T04:06:24.684Z,98308.72
2022-12-11T04:09:40.632Z,98312.66
2022-12-11T04:12:42.597Z,98319.84
2022-12-11T04:15:57.703Z,98321.16
2022-12-11T04:19:06.493Z,98330.19
2022-12-11T04:22:17.622Z,98314.91
2022-12-11T04:25:32.630Z,98315.44
2022-12-11T04:28:35.331Z,98334.28
2022-12-11T04:31:50.621Z,98336.06
2022-12-11T04:34:52.541Z,98333.78
2022-12-11T04:38:07.627Z,98340.91
2022-12-11T04:41:17.882Z,98339.34
2022-12-11T04:44:32.614Z,98338.91
2022-12-11T04:47:54.619Z,98362.13
2022-12-11T04:51:03.913Z,98359.50
2022-12-11T04:54:12.621Z,98384.56
2022-12-11T04:57:21.198Z,98375.28
2022-12-11T05:00:35.626Z,98378.97
2022-12-11T05:03:37.850Z,98390.06
2022-12-11T05:06:52.630Z,98388.25
2022-12-11T05:10:07.617Z,98394.56
2022-12-11T05:13:22.609Z,98368.78
2022-12-11T05:16:37.596Z,98396.94
2022-12-11T05:19:46.631Z,98394.88
2022-12-11T05:22:55.237Z,98398.00
2022-12-11T05:26:09.625Z,98398.03
2022-12-11T05:29:18.386Z,98399.59
2022-12-11T05:32:26.614Z,98396.41
2022-12-11T05:35:35.255Z,98405.63
2022-12-11T05:38:49.679Z,98402.78
2022-12-11T05:41:51.584Z,98396.16
2022-12-11T05:45:06.622Z,98402.78
2022-12-11T05:48:21.627Z,98417.31
2022-12-11T05:51:37.596Z,98392.72
2022-12-11T05:54:51.328Z,98383.03
2022-12-11T05:58:06.620Z,98404.44
2022-12-11T06:01:15.198Z,98409.16
2022-12-11T06:04:29.622Z,98409.19
2022-12-11T06:07:38.265Z,98415.50
2022-12-11T06:10:56.599Z,98419.72
2022-12-11T06:14:11.604Z,98438.41
2022-12-11T06:17:20.168Z,98441.84
2022-12-11T06:20:28.620Z,98447.69
2022-12-11T06:23:43.599Z,98445.53
2022-12-11T06:26:52.286Z,98461.63
2022-12-11T06:30:00.613Z,98473.56
2022-12-11T06:33:09.177Z,98480.72
2022-12-11T06:36:22.581Z,98484.37
2022-12-11T06:39:38.603Z,98493.09
2022-12-11T06:42:46.589Z,98482.88
2022-12-11T06:46:04.038Z,98492.31
2022-12-11T06:49:19.575Z,98497.59
2022-12-11T06:52:35.632Z,98498.91
2022-12-11T06:55:44.603Z,98507.41
2022-12-11T06:59:04.223Z,98515.56
2022-12-11T07:02:26.656Z,98526.72
2022-12-11T07:05:35.637Z,98529.06
2022-12-11T07:08:51.610Z,98525.09
2022-12-11T07:11:53.690Z,98523.50
2022-12-11T07:15:09.977Z,98549.09
2022-12-11T07:18:19.228Z,98528.22
2022-12-11T07:21:27.586Z,98539.06
2022-12-11T07:24:36.196Z,98541.16
2022-12-11T07:27:50.617Z,98548.81
2022-12-11T07:30:59.631Z,98565.41
2022-12-11T07:34:08.325Z,98549.59
2022-12-11T07:37:24.610Z,98559.38
2022-12-11T07:40:41.576Z,98563.84
2022-12-11T07:43:50.707Z,98559.84
2022-12-11T07:46:59.188Z,98576.72
2022-12-11T07:50:20.598Z,98573.53
2022-12-11T07:53:22.514Z,98580.09
2022-12-11T07:56:43.688Z,98588.06
2022-12-11T07:59:52.604Z,98606.53
2022-12-11T08:03:00.605Z,98613.47
2022-12-11T08:06:10.220Z,98629.56
2022-12-11T08:09:21.408Z,98626.66
2022-12-11T08:12:38.735Z,98622.09
2022-12-11T08:15:47.248Z,98630.84
2022-12-11T08:19:02.595Z,98637.16
2022-12-11T08:22:11.586Z,98644.34
2022-12-11T08:25:20.258Z,98637.94
2022-12-11T08:28:35.597Z,98652.47
2022-12-11T08:31:50.598Z,98646.69
2022-12-11T08:35:05.617Z,98651.19
2022-12-11T08:38:14.362Z,98661.44
2022-12-11T08:41:24.596Z,98662.03
2022-12-11T08:44:39.595Z,98674.16
2022-12-11T08:48:01.596Z,98689.50
2022-12-11T08:51:16.179Z,98688.44
2022-12-11T08:54:30.606Z,98675.22
2022-12-11T08:57:48.593Z,98698.22
2022-12-11T09:00:57.861Z,98702.19
2022-12-11T09:04:12.596Z,98709.56
2022-12-11T09:07:27.596Z,98712.47
2022-12-11T09:10:37.290Z,98709.84
2022-12-11T09:13:47.602Z,98714.41
2022-12-11T09:16:56.280Z,98720.69
2022-12-11T09:20:04.593Z,98721.22
2022-12-11T09:23:13.417Z,98710.12
2022-12-11T09:26:29.607Z,98700.16
2022-12-11T09:29:39.294Z,98717.03
2022-12-11T09:32:54.584Z,98708.31
2022-12-11T09:36:10.741Z,98723.62
2022-12-11T09:39:14.324Z,98715.16
2022-12-11T09:42:55.618Z,98704.06
2022-12-11T09:46:17.607Z,98719.63
2022-12-11T09:49:41.650Z,98713.00
2022-12-11T09:53:18.602Z,98676.63
2022-12-11T09:56:51.595Z,98700.66
2022-12-11T10:00:12.643Z,98711.69
2022-12-11T10:04:07.572Z,98701.91
2022-12-11T10:07:47.606Z,98694.28
2022-12-11T10:11:02.743Z,98687.91
2022-12-11T10:14:39.601Z,98678.91
2022-12-11T10:17:48.325Z,98689.50
2022-12-11T10:20:58.578Z,98692.44
2022-12-11T10:24:41.864Z,98713.56
2022-12-11T10:27:53.573Z,98716.50
2022-12-11T10:31:08.596Z,98723.88
2022-12-11T10:34:30.618Z,98733.41
2022-12-11T10:37:46.575Z,98716.97
2022-12-11T10:41:04.559Z,98715.94
2022-12-11T10:44:33.557Z,98710.12
2022-12-11T10:47:48.563Z,98736.03
2022-12-11T10:50:59.177Z,98745.00
2022-12-11T10:54:33.543Z,98753.47
2022-12-11T10:57:49.572Z,98757.72
2022-12-11T11:01:11.040Z,98751.13
2022-12-11T11:04:37.662Z,98737.16
2022-12-11T11:07:52.736Z,98765.13
2022-12-11T11:11:01.545Z,98751.34
2022-12-11T11:14:25.604Z,98739.22
2022-12-11T11:17:55.373Z,98741.31
2022-12-11T11:21:04.377Z,98740.25
2022-12-11T11:24:40.592Z,98740.25
2022-12-11T11:28:02.164Z,98739.19
2022-12-11T11:31:17.642Z,98735.22
2022-12-11T11:34:32.573Z,98741.53
2022-12-11T11:37:51.581Z,98739.19
2022-12-11T11:41:17.705Z,98756.81
2022-12-11T11:45:00.577Z,98767.16
2022-12-11T11:48:35.551Z,98762.12
2022-12-11T11:52:16.584Z,98767.69
2022-12-11T11:55:49.871Z,98779.59
2022-12-11T11:59:19.180Z,98778.28
2022-12-11T12:02:34.567Z,98783.03
2022-12-11T12:06:15.224Z,98787.28
2022-12-11T12:09:30.614Z,98798.88
2022-12-11T12:12:39.153Z,98793.84
2022-12-11T12:15:53.653Z,98802.34
2022-12-11T12:19:25.561Z,98796.25
2022-12-11T12:22:45.996Z,98793.59
2022-12-11T12:26:09.552Z,98809.47
2022-12-11T12:29:23.921Z,98810.22
2022-12-11T12:32:47.562Z,98799.91
2022-12-11T12:36:03.457Z,98804.37
2022-12-11T12:39:30.607Z,98806.75
2022-12-11T12:43:11.563Z,98804.41
2022-12-11T12:46:26.371Z,98808.66
2022-12-11T12:49:49.561Z,98824.22
2022-12-11T12:52:58.983Z,98825.84
2022-12-11T12:56:14.734Z,98834.53
2022-12-11T12:59:21.847Z,98830.84
2022-12-11T13:02:37.749Z,98842.75
2022-12-11T13:06:08.580Z,98857.28
2022-12-11T13:09:23.845Z,98851.47
2022-12-11T13:12:51.547Z,98874.47
2022-12-11T13:15:59.672Z,98885.06
2022-12-11T13:19:23.554Z,98881.31
2022-12-11T13:22:38.564Z,98884.47
2022-12-11T13:25:50.773Z,98889.25
2022-12-11T13:29:06.625Z,98889.53
2022-12-11T13:32:18.621Z,98878.44
2022-12-11T13:35:34.536Z,98886.09
2022-12-11T13:38:57.560Z,98890.56
2022-12-11T13:42:20.903Z,98893.50
2022-12-11T13:45:43.815Z,98905.13
2022-12-11T13:49:05.031Z,98906.72
2022-12-11T13:52:31.548Z,98908.28
2022-12-11T13:55:46.581Z,98899.84
2022-12-11T13:58:49.463Z,98905.13
2022-12-11T14:02:10.618Z,98914.66
2022-12-11T14:05:19.558Z,98927.37
2022-12-11T14:08:37.058Z,98933.97
2022-12-11T14:11:56.796Z,98939.25
2022-12-11T14:15:02.427Z,98945.88
2022-12-11T14:18:29.546Z,98944.03
2022-12-11T14:21:38.218Z,98949.84
2022-12-11T14:24:56.769Z,98957.00
2022-12-11T14:28:22.750Z,98966.00
2022-12-11T14:31:40.969Z,98968.66
2022-12-11T14:34:50.851Z,98973.13
2022-12-11T14:38:00.653Z,98989.50
2022-12-11T14:41:43.563Z,98984.22
2022-12-11T14:45:07.424Z,98987.13
2022-12-11T14:48:34.521Z,98986.84
2022-12-11T14:51:44.312Z,99004.81
2022-12-11T14:55:06.550Z,98998.72
2022-12-11T14:58:26.528Z,99000.84
2022-12-11T15:01:37.348Z,99000.84
2022-12-11T15:05:04.548Z,99002.97
2022-12-11T15:08:19.835Z,99007.72
2022-12-11T15:11:32.404Z,98999.78
2022-12-11T15:14:41.534Z,99013.28
2022-12-11T15:17:53.023Z,99024.09
2022-12-11T15:21:13.796Z,99015.63
2022-12-11T15:24:32.757Z,99014.56
2022-12-11T15:27:41.543Z,99005.84
2022-12-11T15:30:50.840Z,99025.37
2022-12-11T15:34:06.527Z,99034.63
2022-12-11T15:37:39.663Z,99033.59
2022-12-11T15:40:48.756Z,99037.81
2022-12-11T15:44:03.888Z,99032.25
2022-12-11T15:47:21.030Z,99037.22
2022-12-11T15:50:42.532Z,99027.22
2022-12-11T15:53:51.832Z,99030.38
2022-12-11T15:57:04.129Z,99024.31
2022-12-11T16:00:24.542Z,99036.72
2022-12-11T16:03:33.526Z,99034.91
2022-12-11T16:06:48.536Z,99034.63
2022-12-11T16:09:57.344Z,99045.97
2022-12-11T16:13:05.575Z,99046.25
2022-12-11T16:16:20.937Z,99049.66
2022-12-11T16:19:23.228Z,99048.31
2022-12-11T16:22:39.790Z,99060.72
2022-12-11T16:25:54.546Z,99066.00
2022-12-11T16:28:56.753Z,99057.53
2022-12-11T16:32:12.534Z,99044.25
2022-12-11T16:35:22.285Z,99059.62
2022-12-11T16:38:31.744Z,99061.75
2022-12-11T16:41:46.797Z,99068.34
2022-12-11T16:45:09.937Z,99068.88
2022-12-11T16:48:25.512Z,99071.78
2022-12-11T16:51:41.629Z,99070.47
2022-12-11T16:54:50.180Z,99078.37
2022-12-11T16:58:05.531Z,99069.38
2022-12-11T17:01:15.670Z,99066.47
2022-12-11T17:04:30.553Z,99050.28
2022-12-11T17:07:39.255Z,99069.09
2022-12-11T17:10:48.550Z,99076.16
2022-12-11T17:14:06.629Z,99078.84
2022-12-11T17:17:15.544Z,99068.28
2022-12-11T17:20:28.386Z,99066.44
2022-12-11T17:23:37.847Z,99067.97
2022-12-11T17:26:53.845Z,99065.09
2022-12-11T17:29:56.198Z,99071.94
2022-12-11T17:33:14.824Z,99068.28
2022-12-11T17:36:23.438Z,99067.72
2022-12-11T17:39:39.919Z,99082.44
2022-12-11T17:42:50.018Z,99077.69
2022-12-11T17:45:58.784Z,99059.41
2022-12-11T17:49:09.663Z,99079.00
2022-12-11T17:52:27.358Z,99079.22
2022-12-11T17:55:50.533Z,99068.12
2022-12-11T17:58:59.584Z,99064.19
2022-12-11T18:02:09.938Z,99070.78
2022-12-11T18:05:18.958Z,99066.53
2022-12-11T18:08:29.385Z,99078.16
2022-12-11T18:11:45.983Z,99079.19
2022-12-11T18:14:54.349Z,99073.34
2022-12-11T18:18:12.710Z,99091.88
2022-12-11T18:21:31.687Z,99068.31
2022-12-11T18:24:40.638Z,99090.81
2022-12-11T18:27:51.018Z,99105.03
2022-12-11T18:31:01.868Z,99103.47
2022-12-11T18:34:17.903Z,99102.16
2022-12-11T18:37:28.259Z,99109.28
2022-12-11T18:40:47.122Z,99106.12
2022-12-11T18:43:57.848Z,99110.84
2022-12-11T18:47:10.498Z,99116.66
2022-12-11T18:50:26.678Z,99125.91
2022-12-11T18:53:42.862Z,99122.38
2022-12-11T18:56:58.951Z,99127.97
2022-12-11T19:00:15.921Z,99120.81
2022-12-11T19:03:25.749Z,99125.78
2022-12-11T19:06:36.812Z,99133.44
2022-12-11T19:09:48.328Z,99135.00
2022-12-11T19:12:57.865Z,99139.25
2022-12-11T19:16:07.218Z,99142.09
2022-12-11T19:19:26.797Z,99140.03
2022-12-11T19:22:30.658Z,99140.81
2022-12-11T19:25:52.992Z,99139.69
2022-12-11T19:29:09.481Z,99139.16
2022-12-11T19:32:12.379Z,99146.03
2022-12-11T19:35:29.941Z,99149.78
2022-12-11T19:38:32.860Z,99144.50
2022-12-11T19:41:48.934Z,99145.50
2022-12-11T19:44:51.756Z,99147.00
2022-12-11T19:48:06.935Z,99149.47
2022-12-11T19:51:28.917Z,99152.59
2022-12-11T19:54:37.708Z,99149.69
2022-12-11T19:57:54.286Z,99161.03
2022-12-11T20:01:06.424Z,99161.53
2022-12-11T20:04:18.475Z,99165.56
2022-12-11T20:07:30.656Z,99164.28
2022-12-11T20:10:46.923Z,99158.53
2022-12-11T20:13:50.901Z,99162.22
2022-12-11T20:17:14.498Z,99162.28
2022-12-11T20:20:28.695Z,99176.38
2022-12-11T20:23:38.922Z,99179.47
2022-12-11T20:26:53.482Z,99176.97
2022-12-11T20:29:56.313Z,99179.38
2022-12-11T20:33:12.944Z,99183.25
2022-12-11T20:36:28.922Z,99178.19
2022-12-11T20:39:31.497Z,99184.81
2022-12-11T20:42:47.474Z,99181.16
2022-12-11T20:45:56.847Z,99184.66
2022-12-11T20:49:13.111Z,99179.63
2022-12-11T20:52:29.139Z,99189.62
2022-12-11T20:55:49.827Z,99176.34
2022-12-11T20:59:01.203Z,99186.63
2022-12-11T21:02:11.809Z,99184.16
2022-12-11T21:05:26.510Z,99186.78
2022-12-11T21:08:34.573Z,99190.69
2022-12-11T21:11:43.849Z,99198.66
2022-12-11T21:14:59.913Z,99216.37
2022-12-11T21:18:08.918Z,99206.88
2022-12-11T21:21:18.099Z,99207.41
2022-12-11T21:24:35.797Z,99224.84
2022-12-11T21:27:57.461Z,99226.06
2022-12-11T21:31:19.569Z,99239.97
2022-12-11T21:34:28.766Z,99234.47
2022-12-11T21:37:37.493Z,99233.47
2022-12-11T21:40:49.778Z,99244.59
2022-12-11T21:47:30.181Z,99251.34
2022-12-11T21:50:57.494Z,99245.56
2022-12-11T21:54:14.473Z,99254.81
2022-12-11T21:57:26.255Z,99251.34
2022-12-11T22:00:52.519Z,99254.19
2022-12-11T22:04:02.141Z,99263.00
2022-12-11T22:07:17.463Z,99259.66
2022-12-11T22:10:27.670Z,99257.56
2022-12-11T22:13:36.463Z,99265.47
2022-12-11T22:16:51.526Z,99264.91
2022-12-11T22:19:53.547Z,99265.00
2022-12-11T22:23:08.575Z,99264.00
2022-12-11T22:26:23.481Z,99268.72
2022-12-11T22:29:38.485Z,99267.84
2022-12-11T22:32:47.197Z,99268.66
2022-12-11T22:36:02.483Z,99260.66
2022-12-11T22:39:17.460Z,99261.87
2022-12-11T22:42:32.528Z,99264.44
2022-12-11T22:45:45.567Z,99256.22
2022-12-11T22:49:07.469Z,99264.38
2022-12-11T22:52:29.474Z,99271.00
2022-12-11T22:55:39.246Z,99273.47
2022-12-11T22:58:48.457Z,99274.75
2022-12-11T23:01:57.195Z,99281.53
2022-12-11T23:05:05.475Z,99285.28
2022-12-11T23:08:14.267Z,99284.31
2022-12-11T23:11:28.471Z,99296.22
2022-12-11T23:14:37.318Z,99289.91
2022-12-11T23:17:52.456Z,99291.09
2022-12-11T23:20:54.969Z,99279.16
2022-12-11T23:24:10.447Z,99271.00
2022-12-11T23:27:25.497Z,99291.41
2022-12-11T23:30:29.819Z,99291.87
2022-12-11T23:33:44.460Z,99279.22
2022-12-11T23:36:59.456Z,99286.22
2022-12-11T23:40:15.502Z,99285.25
2022-12-11T23:43:30.460Z,99284.78
2022-12-11T23:46:38.493Z,99284.16
2022-12-11T23:50:00.452Z,99285.59
2022-12-11T23:53:16.488Z,99283.03
2022-12-11T23:56:27.708Z,99292.13
2022-12-11T23:59:36.473Z,99283.59
